sensor_id;sensor_type;location;lat;lon;timestamp;temperature;humidity
55026;DHT22;40925;45.666;18.994;2024-02-16T00:01:04;128.70;2252.80
55026;DHT22;40925;45.666;18.994;2024-02-16T00:03:31;128.60;2252.80
55026;DHT22;40925;45.666;18.994;2024-02-16T00:05:56;128.60;2252.80
55026;DHT22;40925;45.666;18.994;2024-02-16T00:08:22;128.40;2252.80
55026;DHT22;40925;45.666;18.994;2024-02-16T00:10:48;128.30;2252.80
55026;DHT22;40925;45.666;18.994;2024-02-16T00:13:14;128.20;2252.80
55026;DHT22;40925;45.666;18.994;2024-02-16T00:15:40;128.10;2252.80
55026;DHT22;40925;45.666;18.994;2024-02-16T00:18:06;128.10;2252.80
55026;DHT22;40925;45.666;18.994;2024-02-16T00:20:32;128.10;2252.80
55026;DHT22;40925;45.666;18.994;2024-02-16T00:22:58;128.10;2252.80
55026;DHT22;40925;45.666;18.994;2024-02-16T00:25:24;128.00;2252.80
55026;DHT22;40925;45.666;18.994;2024-02-16T00:27:49;128.00;2252.80
55026;DHT22;40925;45.666;18.994;2024-02-16T00:30:19;128.00;2252.80
55026;DHT22;40925;45.666;18.994;2024-02-16T00:32:45;128.10;2252.80
55026;DHT22;40925;45.666;18.994;2024-02-16T00:35:11;128.10;2252.80
55026;DHT22;40925;45.666;18.994;2024-02-16T00:37:37;128.30;2252.80
55026;DHT22;40925;45.666;18.994;2024-02-16T00:40:04;128.20;2252.80
55026;DHT22;40925;45.666;18.994;2024-02-16T00:42:32;128.20;2252.80
55026;DHT22;40925;45.666;18.994;2024-02-16T00:44:57;128.20;2252.80
55026;DHT22;40925;45.666;18.994;2024-02-16T00:47:26;128.20;2252.80
55026;DHT22;40925;45.666;18.994;2024-02-16T00:49:52;128.20;2252.80
55026;DHT22;40925;45.666;18.994;2024-02-16T00:52:18;128.10;2252.80
55026;DHT22;40925;45.666;18.994;2024-02-16T00:54:44;128.10;2252.80
55026;DHT22;40925;45.666;18.994;2024-02-16T00:57:09;128.10;2252.80
55026;DHT22;40925;45.666;18.994;2024-02-16T00:59:35;128.00;2252.80
55026;DHT22;40925;45.666;18.994;2024-02-16T01:02:01;128.00;2252.80
55026;DHT22;40925;45.666;18.994;2024-02-16T01:04:26;128.00;2252.80
55026;DHT22;40925;45.666;18.994;2024-02-16T01:06:52;103.30;2227.20
55026;DHT22;40925;45.666;18.994;2024-02-16T01:09:18;103.30;2227.20
55026;DHT22;40925;45.666;18.994;2024-02-16T01:11:43;103.30;2227.20
55026;DHT22;40925;45.666;18.994;2024-02-16T01:14:09;128.10;2252.80
55026;DHT22;40925;45.666;18.994;2024-02-16T01:16:35;103.20;2227.20
55026;DHT22;40925;45.666;18.994;2024-02-16T01:21:27;103.20;2227.20
55026;DHT22;40925;45.666;18.994;2024-02-16T01:23:53;103.10;2227.20
55026;DHT22;40925;45.666;18.994;2024-02-16T01:26:18;103.00;2227.20
55026;DHT22;40925;45.666;18.994;2024-02-16T01:28:44;102.90;2227.20
55026;DHT22;40925;45.666;18.994;2024-02-16T01:31:10;102.90;2227.20
55026;DHT22;40925;45.666;18.994;2024-02-16T01:33:36;102.90;2227.20
55026;DHT22;40925;45.666;18.994;2024-02-16T01:36:03;103.00;2227.20
55026;DHT22;40925;45.666;18.994;2024-02-16T01:38:29;103.00;2227.20
55026;DHT22;40925;45.666;18.994;2024-02-16T01:40:54;102.90;2227.20
55026;DHT22;40925;45.666;18.994;2024-02-16T01:43:21;102.90;2227.20
55026;DHT22;40925;45.666;18.994;2024-02-16T01:45:47;102.90;2227.20
55026;DHT22;40925;45.666;18.994;2024-02-16T01:48:14;102.90;2227.20
55026;DHT22;40925;45.666;18.994;2024-02-16T01:50:42;102.90;2227.20
55026;DHT22;40925;45.666;18.994;2024-02-16T01:53:09;102.90;2227.20
55026;DHT22;40925;45.666;18.994;2024-02-16T01:55:36;102.90;2227.20
55026;DHT22;40925;45.666;18.994;2024-02-16T01:58:03;102.80;2227.20
55026;DHT22;40925;45.666;18.994;2024-02-16T02:00:29;102.70;2227.20
55026;DHT22;40925;45.666;18.994;2024-02-16T02:02:55;102.80;2227.20
55026;DHT22;40925;45.666;18.994;2024-02-16T02:05:22;102.80;2227.20
55026;DHT22;40925;45.666;18.994;2024-02-16T02:07:48;102.70;2227.20
55026;DHT22;40925;45.666;18.994;2024-02-16T02:10:14;102.70;2227.20
55026;DHT22;40925;45.666;18.994;2024-02-16T02:12:40;102.60;2227.20
55026;DHT22;40925;45.666;18.994;2024-02-16T02:46:51;102.70;2227.20
55026;DHT22;40925;45.666;18.994;2024-02-16T02:49:17;102.40;2227.20
55026;DHT22;40925;45.666;18.994;2024-02-16T02:51:43;102.40;2227.20
55026;DHT22;40925;45.666;18.994;2024-02-16T02:54:09;102.50;2227.20
55026;DHT22;40925;45.666;18.994;2024-02-16T02:56:34;77.70;2227.20
55026;DHT22;40925;45.666;18.994;2024-02-16T02:59:00;102.40;2227.20
55026;DHT22;40925;45.666;18.994;2024-02-16T03:01:26;77.70;2227.20
55026;DHT22;40925;45.666;18.994;2024-02-16T03:03:52;102.40;2227.20
55026;DHT22;40925;45.666;18.994;2024-02-16T03:06:18;77.60;2227.20
55026;DHT22;40925;45.666;18.994;2024-02-16T03:08:44;77.60;2227.20
55026;DHT22;40925;45.666;18.994;2024-02-16T03:11:10;77.60;2227.20
55026;DHT22;40925;45.666;18.994;2024-02-16T03:42:52;102.40;2227.20
55026;DHT22;40925;45.666;18.994;2024-02-16T03:45:17;77.50;2227.20
55026;DHT22;40925;45.666;18.994;2024-02-16T03:47:43;77.40;2227.20
55026;DHT22;40925;45.666;18.994;2024-02-16T03:50:10;77.30;2227.20
55026;DHT22;40925;45.666;18.994;2024-02-16T03:52:37;77.30;2227.20
55026;DHT22;40925;45.666;18.994;2024-02-16T03:55:03;77.20;2227.20
55026;DHT22;40925;45.666;18.994;2024-02-16T03:57:30;77.10;2227.20
55026;DHT22;40925;45.666;18.994;2024-02-16T03:59:57;76.90;2227.20
55026;DHT22;40925;45.666;18.994;2024-02-16T04:02:22;77.00;2227.20
55026;DHT22;40925;45.666;18.994;2024-02-16T04:04:48;76.90;2227.20
55026;DHT22;40925;45.666;18.994;2024-02-16T04:07:14;77.00;2227.20
55026;DHT22;40925;45.666;18.994;2024-02-16T05:13:07;77.00;2227.20
55026;DHT22;40925;45.666;18.994;2024-02-16T05:59:50;77.50;2227.20
55026;DHT22;40925;45.666;18.994;2024-02-16T06:02:17;77.30;2227.20
55026;DHT22;40925;45.666;18.994;2024-02-16T06:07:09;128.50;2252.80
55026;DHT22;40925;45.666;18.994;2024-02-16T06:12:06;180.10;2252.80
55026;DHT22;40925;45.666;18.994;2024-02-16T06:14:33;230.50;2252.80
55026;DHT22;40925;45.666;18.994;2024-02-16T06:16:59;281.80;2278.40
55026;DHT22;40925;45.666;18.994;2024-02-16T06:21:52;307.70;2304.00
55026;DHT22;40925;45.666;18.994;2024-02-16T06:24:18;332.80;2048.00
55026;DHT22;40925;45.666;18.994;2024-02-16T06:26:44;333.10;1971.20
55026;DHT22;40925;45.666;18.994;2024-02-16T06:29:10;333.30;1868.80
55026;DHT22;40925;45.666;18.994;2024-02-16T06:31:35;358.90;1843.20
55026;DHT22;40925;45.666;18.994;2024-02-16T06:34:01;384.90;1740.80
55026;DHT22;40925;45.666;18.994;2024-02-16T06:36:28;435.80;1638.40
55026;DHT22;40925;45.666;18.994;2024-02-16T06:38:54;436.10;1561.60
55026;DHT22;40925;45.666;18.994;2024-02-16T06:41:20;461.40;1536.00
55026;DHT22;40925;45.666;18.994;2024-02-16T06:43:45;486.40;1459.20
55026;DHT22;40925;45.666;18.994;2024-02-16T06:46:11;486.60;1433.60
55026;DHT22;40925;45.666;18.994;2024-02-16T06:48:37;487.10;1408.00
55026;DHT22;40925;45.666;18.994;2024-02-16T06:51:02;512.00;1382.40
55026;DHT22;40925;45.666;18.994;2024-02-16T06:53:28;512.80;1331.20
55026;DHT22;40925;45.666;18.994;2024-02-16T06:55:54;538.40;1305.60
55026;DHT22;40925;45.666;18.994;2024-02-16T06:58:20;563.40;1280.00
55026;DHT22;40925;45.666;18.994;2024-02-16T07:00:45;563.50;1254.40
55026;DHT22;40925;45.666;18.994;2024-02-16T07:03:12;564.00;1228.80
55026;DHT22;40925;45.666;18.994;2024-02-16T07:05:38;589.60;1177.60
55026;DHT22;40925;45.666;18.994;2024-02-16T07:08:05;563.20;1203.20
55026;DHT22;40925;45.666;18.994;2024-02-16T07:10:33;564.10;1203.20
55026;DHT22;40925;45.666;18.994;2024-02-16T07:12:59;614.50;1152.00
55026;DHT22;40925;45.666;18.994;2024-02-16T07:15:24;615.30;1075.20
55026;DHT22;40925;45.666;18.994;2024-02-16T07:17:51;640.60;1100.80
55026;DHT22;40925;45.666;18.994;2024-02-16T07:20:17;640.90;1024.00
55026;DHT22;40925;45.666;18.994;2024-02-16T07:22:43;665.60;1049.60
55026;DHT22;40925;45.666;18.994;2024-02-16T07:25:11;665.80;1049.60
55026;DHT22;40925;45.666;18.994;2024-02-16T07:27:38;666.10;1049.60
55026;DHT22;40925;45.666;18.994;2024-02-16T07:30:04;666.20;998.40
55026;DHT22;40925;45.666;18.994;2024-02-16T07:32:30;666.20;1024.00
55026;DHT22;40925;45.666;18.994;2024-02-16T07:34:56;665.90;1024.00
55026;DHT22;40925;45.666;18.994;2024-02-16T07:37:22;666.50;998.40
55026;DHT22;40925;45.666;18.994;2024-02-16T07:39:48;666.40;998.40
55026;DHT22;40925;45.666;18.994;2024-02-16T07:42:17;640.00;1049.60
55026;DHT22;40925;45.666;18.994;2024-02-16T07:44:42;614.80;1075.20
55026;DHT22;40925;45.666;18.994;2024-02-16T07:47:14;563.70;1177.60
55026;DHT22;40925;45.666;18.994;2024-02-16T07:49:41;563.80;1203.20
55026;DHT22;40925;45.666;18.994;2024-02-16T07:52:06;537.90;1228.80
55026;DHT22;40925;45.666;18.994;2024-02-16T07:54:32;588.90;1152.00
55026;DHT22;40925;45.666;18.994;2024-02-16T07:56:58;563.70;1203.20
55026;DHT22;40925;45.666;18.994;2024-02-16T07:59:25;564.10;1152.00
55026;DHT22;40925;45.666;18.994;2024-02-16T08:01:51;563.60;1177.60
55026;DHT22;40925;45.666;18.994;2024-02-16T08:04:17;589.40;1177.60
55026;DHT22;40925;45.666;18.994;2024-02-16T08:06:43;614.80;1100.80
55026;DHT22;40925;45.666;18.994;2024-02-16T08:09:08;589.20;1126.40
55026;DHT22;40925;45.666;18.994;2024-02-16T08:11:34;589.70;1126.40
55026;DHT22;40925;45.666;18.994;2024-02-16T08:14:00;589.50;1126.40
55026;DHT22;40925;45.666;18.994;2024-02-16T08:16:32;614.80;1126.40
55026;DHT22;40925;45.666;18.994;2024-02-16T08:18:57;640.50;1049.60
55026;DHT22;40925;45.666;18.994;2024-02-16T08:21:23;665.90;1049.60
55026;DHT22;40925;45.666;18.994;2024-02-16T08:23:51;666.20;1049.60
55026;DHT22;40925;45.666;18.994;2024-02-16T08:26:20;614.80;1100.80
55026;DHT22;40925;45.666;18.994;2024-02-16T08:28:46;614.90;1100.80
55026;DHT22;40925;45.666;18.994;2024-02-16T08:33:45;538.20;1254.40
55026;DHT22;40925;45.666;18.994;2024-02-16T08:38:41;486.50;1408.00
55026;DHT22;40925;45.666;18.994;2024-02-16T08:41:06;486.50;1408.00
55026;DHT22;40925;45.666;18.994;2024-02-16T08:43:32;487.20;1382.40
55026;DHT22;40925;45.666;18.994;2024-02-16T08:45:58;486.80;1382.40
55026;DHT22;40925;45.666;18.994;2024-02-16T08:48:26;486.70;1408.00
55026;DHT22;40925;45.666;18.994;2024-02-16T08:50:52;461.70;1433.60
55026;DHT22;40925;45.666;18.994;2024-02-16T08:53:18;436.10;1484.80
55026;DHT22;40925;45.666;18.994;2024-02-16T08:55:43;435.30;1536.00
55026;DHT22;40925;45.666;18.994;2024-02-16T08:58:09;410.20;1587.20
55026;DHT22;40925;45.666;18.994;2024-02-16T09:00:35;410.30;1612.80
55026;DHT22;40925;45.666;18.994;2024-02-16T09:03:01;410.10;1587.20
55026;DHT22;40925;45.666;18.994;2024-02-16T09:05:31;410.20;1587.20
55026;DHT22;40925;45.666;18.994;2024-02-16T09:08:00;409.70;1587.20
55026;DHT22;40925;45.666;18.994;2024-02-16T09:10:26;410.10;1638.40
55026;DHT22;40925;45.666;18.994;2024-02-16T09:12:51;409.90;1638.40
55026;DHT22;40925;45.666;18.994;2024-02-16T09:15:17;410.10;1638.40
55026;DHT22;40925;45.666;18.994;2024-02-16T09:17:43;410.10;1561.60
55026;DHT22;40925;45.666;18.994;2024-02-16T09:20:12;410.40;1587.20
55026;DHT22;40925;45.666;18.994;2024-02-16T09:22:40;410.10;1587.20
55026;DHT22;40925;45.666;18.994;2024-02-16T09:25:06;410.40;1561.60
55026;DHT22;40925;45.666;18.994;2024-02-16T09:27:32;410.10;1587.20
55026;DHT22;40925;45.666;18.994;2024-02-16T09:30:01;409.80;1612.80
55026;DHT22;40925;45.666;18.994;2024-02-16T09:32:26;409.70;1612.80
55026;DHT22;40925;45.666;18.994;2024-02-16T09:42:13;409.80;1920.00
55026;DHT22;40925;45.666;18.994;2024-02-16T09:44:43;409.80;1638.40
55026;DHT22;40925;45.666;18.994;2024-02-16T09:47:09;409.90;1612.80
55026;DHT22;40925;45.666;18.994;2024-02-16T09:49:39;409.70;1638.40
55026;DHT22;40925;45.666;18.994;2024-02-16T09:52:09;384.80;1638.40
55026;DHT22;40925;45.666;18.994;2024-02-16T09:54:36;409.70;1664.00
55026;DHT22;40925;45.666;18.994;2024-02-16T09:57:02;409.90;1638.40
55026;DHT22;40925;45.666;18.994;2024-02-16T09:59:29;435.60;1561.60
55026;DHT22;40925;45.666;18.994;2024-02-16T10:04:29;461.00;1510.40
55026;DHT22;40925;45.666;18.994;2024-02-16T10:06:56;435.60;1536.00
55026;DHT22;40925;45.666;18.994;2024-02-16T10:09:23;435.90;1510.40
55026;DHT22;40925;45.666;18.994;2024-02-16T10:11:49;461.40;1510.40
55026;DHT22;40925;45.666;18.994;2024-02-16T10:14:15;461.00;1510.40
55026;DHT22;40925;45.666;18.994;2024-02-16T10:16:41;436.10;1484.80
55026;DHT22;40925;45.666;18.994;2024-02-16T10:19:08;436.00;1484.80
55026;DHT22;40925;45.666;18.994;2024-02-16T10:21:36;461.10;1484.80
55026;DHT22;40925;45.666;18.994;2024-02-16T10:24:02;461.10;1484.80
55026;DHT22;40925;45.666;18.994;2024-02-16T10:26:30;436.10;1484.80
55026;DHT22;40925;45.666;18.994;2024-02-16T10:28:56;435.20;1510.40
55026;DHT22;40925;45.666;18.994;2024-02-16T10:31:26;436.00;1510.40
55026;DHT22;40925;45.666;18.994;2024-02-16T10:33:58;460.80;1484.80
55026;DHT22;40925;45.666;18.994;2024-02-16T10:36:25;461.30;1433.60
55026;DHT22;40925;45.666;18.994;2024-02-16T10:38:54;461.10;1433.60
55026;DHT22;40925;45.666;18.994;2024-02-16T10:41:26;461.10;1459.20
55026;DHT22;40925;45.666;18.994;2024-02-16T10:43:54;461.30;1459.20
55026;DHT22;40925;45.666;18.994;2024-02-16T10:46:21;461.20;1459.20
55026;DHT22;40925;45.666;18.994;2024-02-16T10:48:47;461.20;1459.20
55026;DHT22;40925;45.666;18.994;2024-02-16T10:51:15;461.40;1459.20
55026;DHT22;40925;45.666;18.994;2024-02-16T10:53:44;461.20;1433.60
55026;DHT22;40925;45.666;18.994;2024-02-16T10:56:10;461.10;1433.60
55026;DHT22;40925;45.666;18.994;2024-02-16T10:58:37;461.00;1459.20
55026;DHT22;40925;45.666;18.994;2024-02-16T11:01:10;486.40;1433.60
55026;DHT22;40925;45.666;18.994;2024-02-16T11:06:15;461.40;1536.00
55026;DHT22;40925;45.666;18.994;2024-02-16T11:08:44;460.80;1459.20
55026;DHT22;40925;45.666;18.994;2024-02-16T11:11:23;460.80;1459.20
55026;DHT22;40925;45.666;18.994;2024-02-16T11:13:49;461.10;1459.20
55026;DHT22;40925;45.666;18.994;2024-02-16T11:16:17;461.70;1408.00
55026;DHT22;40925;45.666;18.994;2024-02-16T11:18:45;486.90;1382.40
55026;DHT22;40925;45.666;18.994;2024-02-16T11:21:15;487.20;1331.20
55026;DHT22;40925;45.666;18.994;2024-02-16T11:23:41;486.90;1356.80
55026;DHT22;40925;45.666;18.994;2024-02-16T11:26:14;486.40;1382.40
55026;DHT22;40925;45.666;18.994;2024-02-16T11:28:43;461.50;1356.80
55026;DHT22;40925;45.666;18.994;2024-02-16T11:31:09;461.30;1433.60
55026;DHT22;40925;45.666;18.994;2024-02-16T11:33:43;486.50;1382.40
55026;DHT22;40925;45.666;18.994;2024-02-16T11:36:10;461.50;1408.00
55026;DHT22;40925;45.666;18.994;2024-02-16T11:38:37;486.90;1382.40
55026;DHT22;40925;45.666;18.994;2024-02-16T11:41:05;486.50;1382.40
55026;DHT22;40925;45.666;18.994;2024-02-16T11:43:31;512.00;1305.60
55026;DHT22;40925;45.666;18.994;2024-02-16T11:46:14;486.80;1331.20
55026;DHT22;40925;45.666;18.994;2024-02-16T11:48:40;461.50;1356.80
55026;DHT22;40925;45.666;18.994;2024-02-16T11:51:06;461.40;1356.80
55026;DHT22;40925;45.666;18.994;2024-02-16T11:53:32;461.50;1382.40
55026;DHT22;40925;45.666;18.994;2024-02-16T11:55:58;461.40;1382.40
55026;DHT22;40925;45.666;18.994;2024-02-16T11:58:24;461.10;1382.40
55026;DHT22;40925;45.666;18.994;2024-02-16T12:00:51;461.50;1408.00
55026;DHT22;40925;45.666;18.994;2024-02-16T12:03:23;461.00;1382.40
55026;DHT22;40925;45.666;18.994;2024-02-16T12:05:56;486.40;1356.80
55026;DHT22;40925;45.666;18.994;2024-02-16T12:08:23;486.50;1305.60
55026;DHT22;40925;45.666;18.994;2024-02-16T12:10:50;461.70;1331.20
55026;DHT22;40925;45.666;18.994;2024-02-16T12:13:22;461.70;1356.80
55026;DHT22;40925;45.666;18.994;2024-02-16T12:15:50;461.60;1331.20
55026;DHT22;40925;45.666;18.994;2024-02-16T12:18:20;486.60;1356.80
55026;DHT22;40925;45.666;18.994;2024-02-16T12:20:59;461.60;1382.40
55026;DHT22;40925;45.666;18.994;2024-02-16T12:23:25;486.40;1356.80
55026;DHT22;40925;45.666;18.994;2024-02-16T12:25:54;461.60;1382.40
55026;DHT22;40925;45.666;18.994;2024-02-16T12:28:24;461.70;1356.80
55026;DHT22;40925;45.666;18.994;2024-02-16T12:30:54;461.50;1382.40
55026;DHT22;40925;45.666;18.994;2024-02-16T12:33:21;486.50;1331.20
55026;DHT22;40925;45.666;18.994;2024-02-16T12:35:47;486.40;1356.80
55026;DHT22;40925;45.666;18.994;2024-02-16T12:38:13;486.80;1356.80
55026;DHT22;40925;45.666;18.994;2024-02-16T12:40:39;486.40;1331.20
55026;DHT22;40925;45.666;18.994;2024-02-16T12:43:05;487.00;1305.60
55026;DHT22;40925;45.666;18.994;2024-02-16T12:45:32;486.70;1305.60
55026;DHT22;40925;45.666;18.994;2024-02-16T12:47:58;487.20;1305.60
55026;DHT22;40925;45.666;18.994;2024-02-16T12:50:23;512.10;1305.60
55026;DHT22;40925;45.666;18.994;2024-02-16T12:52:49;512.30;1280.00
55026;DHT22;40925;45.666;18.994;2024-02-16T12:55:15;487.30;1254.40
55026;DHT22;40925;45.666;18.994;2024-02-16T12:57:41;512.40;1254.40
55026;DHT22;40925;45.666;18.994;2024-02-16T13:00:07;537.80;1254.40
55026;DHT22;40925;45.666;18.994;2024-02-16T13:02:33;487.20;1254.40
55026;DHT22;40925;45.666;18.994;2024-02-16T13:04:59;487.20;1254.40
55026;DHT22;40925;45.666;18.994;2024-02-16T13:07:25;487.20;1280.00
55026;DHT22;40925;45.666;18.994;2024-02-16T13:09:51;512.00;1254.40
55026;DHT22;40925;45.666;18.994;2024-02-16T13:12:18;487.00;1280.00
55026;DHT22;40925;45.666;18.994;2024-02-16T13:14:46;512.20;1228.80
55026;DHT22;40925;45.666;18.994;2024-02-16T13:17:11;487.30;1228.80
55026;DHT22;40925;45.666;18.994;2024-02-16T13:19:38;487.00;1254.40
55026;DHT22;40925;45.666;18.994;2024-02-16T13:22:04;512.00;1228.80
55026;DHT22;40925;45.666;18.994;2024-02-16T13:24:29;512.70;1203.20
55026;DHT22;40925;45.666;18.994;2024-02-16T13:26:55;512.40;1203.20
55026;DHT22;40925;45.666;18.994;2024-02-16T13:29:21;512.40;1177.60
55026;DHT22;40925;45.666;18.994;2024-02-16T13:31:47;486.70;1228.80
55026;DHT22;40925;45.666;18.994;2024-02-16T13:34:13;461.60;1280.00
55026;DHT22;40925;45.666;18.994;2024-02-16T13:36:40;461.40;1305.60
55026;DHT22;40925;45.666;18.994;2024-02-16T13:39:07;461.50;1280.00
55026;DHT22;40925;45.666;18.994;2024-02-16T13:41:34;486.70;1280.00
55026;DHT22;40925;45.666;18.994;2024-02-16T13:44:00;486.40;1280.00
55026;DHT22;40925;45.666;18.994;2024-02-16T13:46:29;486.90;1254.40
55026;DHT22;40925;45.666;18.994;2024-02-16T13:48:54;486.70;1228.80
55026;DHT22;40925;45.666;18.994;2024-02-16T13:51:22;461.70;1254.40
55026;DHT22;40925;45.666;18.994;2024-02-16T13:53:47;486.60;1280.00
55026;DHT22;40925;45.666;18.994;2024-02-16T13:56:13;486.80;1254.40
55026;DHT22;40925;45.666;18.994;2024-02-16T13:58:39;486.50;1254.40
55026;DHT22;40925;45.666;18.994;2024-02-16T14:01:05;486.40;1280.00
55026;DHT22;40925;45.666;18.994;2024-02-16T14:03:32;486.70;1228.80
55026;DHT22;40925;45.666;18.994;2024-02-16T14:05:58;486.40;1254.40
55026;DHT22;40925;45.666;18.994;2024-02-16T14:08:24;461.70;1254.40
55026;DHT22;40925;45.666;18.994;2024-02-16T14:10:50;486.60;1254.40
55026;DHT22;40925;45.666;18.994;2024-02-16T14:13:16;461.50;1280.00
55026;DHT22;40925;45.666;18.994;2024-02-16T14:15:42;461.50;1280.00
55026;DHT22;40925;45.666;18.994;2024-02-16T14:18:08;461.40;1280.00
55026;DHT22;40925;45.666;18.994;2024-02-16T14:20:34;461.70;1228.80
55026;DHT22;40925;45.666;18.994;2024-02-16T14:23:00;486.60;1203.20
55026;DHT22;40925;45.666;18.994;2024-02-16T14:25:28;461.60;1228.80
55026;DHT22;40925;45.666;18.994;2024-02-16T14:27:54;461.20;1254.40
55026;DHT22;40925;45.666;18.994;2024-02-16T14:30:20;461.50;1254.40
55026;DHT22;40925;45.666;18.994;2024-02-16T14:32:46;461.10;1254.40
55026;DHT22;40925;45.666;18.994;2024-02-16T14:35:12;460.90;1254.40
55026;DHT22;40925;45.666;18.994;2024-02-16T14:37:38;460.80;1254.40
55026;DHT22;40925;45.666;18.994;2024-02-16T14:40:05;460.80;1254.40
55026;DHT22;40925;45.666;18.994;2024-02-16T14:42:36;461.70;1228.80
55026;DHT22;40925;45.666;18.994;2024-02-16T14:45:03;461.60;1228.80
55026;DHT22;40925;45.666;18.994;2024-02-16T14:47:30;461.30;1203.20
55026;DHT22;40925;45.666;18.994;2024-02-16T14:49:56;461.20;1203.20
55026;DHT22;40925;45.666;18.994;2024-02-16T14:52:22;461.10;1228.80
55026;DHT22;40925;45.666;18.994;2024-02-16T14:54:47;460.80;1203.20
55026;DHT22;40925;45.666;18.994;2024-02-16T14:57:13;436.10;1203.20
55026;DHT22;40925;45.666;18.994;2024-02-16T14:59:40;460.90;1254.40
55026;DHT22;40925;45.666;18.994;2024-02-16T15:02:06;461.10;1203.20
55026;DHT22;40925;45.666;18.994;2024-02-16T15:04:34;436.10;1203.20
55026;DHT22;40925;45.666;18.994;2024-02-16T15:07:01;435.80;1254.40
55026;DHT22;40925;45.666;18.994;2024-02-16T15:09:29;436.00;1280.00
55026;DHT22;40925;45.666;18.994;2024-02-16T15:11:55;435.60;1254.40
55026;DHT22;40925;45.666;18.994;2024-02-16T15:14:21;435.50;1254.40
55026;DHT22;40925;45.666;18.994;2024-02-16T15:16:46;435.50;1280.00
55026;DHT22;40925;45.666;18.994;2024-02-16T15:19:12;435.20;1280.00
55026;DHT22;40925;45.666;18.994;2024-02-16T15:21:38;410.30;1331.20
55026;DHT22;40925;45.666;18.994;2024-02-16T15:24:04;410.20;1331.20
55026;DHT22;40925;45.666;18.994;2024-02-16T15:26:30;410.40;1331.20
55026;DHT22;40925;45.666;18.994;2024-02-16T15:28:55;410.20;1331.20
55026;DHT22;40925;45.666;18.994;2024-02-16T15:31:21;410.10;1356.80
55026;DHT22;40925;45.666;18.994;2024-02-16T15:33:47;409.80;1331.20
55026;DHT22;40925;45.666;18.994;2024-02-16T15:36:13;384.90;1331.20
55026;DHT22;40925;45.666;18.994;2024-02-16T15:38:38;384.60;1382.40
55026;DHT22;40925;45.666;18.994;2024-02-16T15:41:04;384.30;1356.80
55026;DHT22;40925;45.666;18.994;2024-02-16T15:43:30;384.10;1382.40
55026;DHT22;40925;45.666;18.994;2024-02-16T15:53:14;359.00;1484.80
55026;DHT22;40925;45.666;18.994;2024-02-16T15:55:40;358.80;1484.80
55026;DHT22;40925;45.666;18.994;2024-02-16T15:58:08;358.40;1510.40
55026;DHT22;40925;45.666;18.994;2024-02-16T16:00:34;333.40;1510.40
55026;DHT22;40925;45.666;18.994;2024-02-16T16:03:02;333.50;1536.00
55026;DHT22;40925;45.666;18.994;2024-02-16T16:05:28;333.40;1561.60
55026;DHT22;40925;45.666;18.994;2024-02-16T16:07:55;333.10;1561.60
55026;DHT22;40925;45.666;18.994;2024-02-16T16:10:21;333.00;1587.20
55026;DHT22;40925;45.666;18.994;2024-02-16T16:12:47;332.90;1561.60
55026;DHT22;40925;45.666;18.994;2024-02-16T16:15:14;332.80;1587.20
55026;DHT22;40925;45.666;18.994;2024-02-16T16:17:40;308.10;1561.60
55026;DHT22;40925;45.666;18.994;2024-02-16T16:20:06;308.00;1561.60
55026;DHT22;40925;45.666;18.994;2024-02-16T16:22:33;307.90;1587.20
55026;DHT22;40925;45.666;18.994;2024-02-16T16:24:59;307.70;1587.20
55026;DHT22;40925;45.666;18.994;2024-02-16T16:27:24;307.70;1612.80
55026;DHT22;40925;45.666;18.994;2024-02-16T16:29:50;307.50;1638.40
55026;DHT22;40925;45.666;18.994;2024-02-16T16:32:16;307.40;1638.40
55026;DHT22;40925;45.666;18.994;2024-02-16T16:34:41;307.40;1664.00
55026;DHT22;40925;45.666;18.994;2024-02-16T16:37:07;307.20;1664.00
55026;DHT22;40925;45.666;18.994;2024-02-16T16:39:33;282.50;1638.40
55026;DHT22;40925;45.666;18.994;2024-02-16T16:42:02;282.40;1664.00
55026;DHT22;40925;45.666;18.994;2024-02-16T16:44:28;282.30;1689.60
55026;DHT22;40925;45.666;18.994;2024-02-16T16:46:53;282.10;1689.60
55026;DHT22;40925;45.666;18.994;2024-02-16T16:49:20;282.00;1715.20
55026;DHT22;40925;45.666;18.994;2024-02-16T16:51:46;281.90;1715.20
55026;DHT22;40925;45.666;18.994;2024-02-16T16:54:11;281.90;1715.20
55026;DHT22;40925;45.666;18.994;2024-02-16T16:56:37;282.00;1715.20
55026;DHT22;40925;45.666;18.994;2024-02-16T16:59:03;282.00;1715.20
55026;DHT22;40925;45.666;18.994;2024-02-16T17:01:29;281.90;1740.80
55026;DHT22;40925;45.666;18.994;2024-02-16T17:03:54;281.80;1740.80
55026;DHT22;40925;45.666;18.994;2024-02-16T17:06:20;281.60;1766.40
55026;DHT22;40925;45.666;18.994;2024-02-16T17:08:46;256.90;1766.40
55026;DHT22;40925;45.666;18.994;2024-02-16T17:11:12;256.80;1766.40
55026;DHT22;40925;45.666;18.994;2024-02-16T17:13:39;256.60;1792.00
55026;DHT22;40925;45.666;18.994;2024-02-16T17:16:06;256.50;1792.00
55026;DHT22;40925;45.666;18.994;2024-02-16T17:18:32;256.30;1817.60
55026;DHT22;40925;45.666;18.994;2024-02-16T17:21:00;256.40;1817.60
55026;DHT22;40925;45.666;18.994;2024-02-16T17:23:27;256.30;1843.20
55026;DHT22;40925;45.666;18.994;2024-02-16T17:25:53;256.10;1843.20
55026;DHT22;40925;45.666;18.994;2024-02-16T17:28:20;256.00;1868.80
55026;DHT22;40925;45.666;18.994;2024-02-16T17:30:45;256.00;1868.80
55026;DHT22;40925;45.666;18.994;2024-02-16T17:33:12;256.00;1868.80
55026;DHT22;40925;45.666;18.994;2024-02-16T17:35:39;256.00;1868.80
55026;DHT22;40925;45.666;18.994;2024-02-16T17:38:07;231.30;1894.40
55026;DHT22;40925;45.666;18.994;2024-02-16T17:40:33;231.30;1894.40
55026;DHT22;40925;45.666;18.994;2024-02-16T17:42:58;231.30;1894.40
55026;DHT22;40925;45.666;18.994;2024-02-16T17:45:25;256.00;1868.80
55026;DHT22;40925;45.666;18.994;2024-02-16T17:47:50;256.00;1868.80
55026;DHT22;40925;45.666;18.994;2024-02-16T17:50:16;231.30;1868.80
55026;DHT22;40925;45.666;18.994;2024-02-16T17:52:42;231.20;1894.40
55026;DHT22;40925;45.666;18.994;2024-02-16T17:55:08;231.10;1920.00